Terminal Aerodrome Forecast
Issued by NWS

Home | Current Version | Previous Version | Text Only | Print | Product List | Glossary On
Versions: 1 2 3 4 5 6 7 8 9 10 11 12
268
FTUS43 KMQT 231140
TAFCMX
TAF
KCMX 231140Z 2312/2412 30008KT P6SM FEW250
     FM240000 08006KT P6SM FEW250
     FM240800 23003KT P6SM FEW250=

USA.gov is the U.S. government's official web portal to all federal, state and local government web resources and services.